createdAt,value
2023-05-08T00:01:31.254Z,96741.97
2023-05-08T00:03:58.684Z,96746.53
2023-05-08T00:06:27.821Z,96740.59
2023-05-08T00:08:57.876Z,96745.69
2023-05-08T00:11:24.778Z,96743.72
2023-05-08T00:13:51.654Z,96764.94
2023-05-08T00:16:18.617Z,96754.69
2023-05-08T00:18:45.824Z,96766.94
2023-05-08T00:21:12.684Z,96741.44
2023-05-08T00:23:39.640Z,96732.22
2023-05-08T00:26:07.173Z,96741.16
2023-05-08T00:28:34.029Z,96740.78
2023-05-08T00:31:04.239Z,96770.34
2023-05-08T00:33:31.330Z,96752.94
2023-05-08T00:36:02.324Z,96746.44
2023-05-08T00:38:34.258Z,96766.63
2023-05-08T00:41:01.991Z,96767.50
2023-05-08T00:43:29.692Z,96771.75
2023-05-08T00:45:58.823Z,96773.72
2023-05-08T00:48:29.332Z,96752.09
2023-05-08T00:50:57.318Z,96762.16
2023-05-08T00:53:26.670Z,96717.56
2023-05-08T00:55:53.780Z,96767.13
2023-05-08T00:58:22.193Z,96771.22
2023-05-08T01:00:51.175Z,96752.88
2023-05-08T01:03:18.350Z,96746.59
2023-05-08T01:05:46.153Z,96740.31
2023-05-08T01:08:13.016Z,96761.22
2023-05-08T01:11:13.151Z,96768.88
2023-05-08T01:14:12.910Z,96771.59
2023-05-08T01:17:37.051Z,96763.78
2023-05-08T01:20:15.909Z,96759.16
2023-05-08T01:23:19.816Z,96777.25
2023-05-08T01:26:04.562Z,96776.59
2023-05-08T01:29:01.524Z,96780.41
2023-05-08T01:31:51.139Z,96775.50
2023-05-08T01:34:24.546Z,96760.94
2023-05-08T01:36:57.983Z,96753.47
2023-05-08T01:39:54.865Z,96786.47
2023-05-08T01:42:43.605Z,96769.28
2023-05-08T01:45:31.357Z,96763.88
2023-05-08T01:48:08.625Z,96780.50
2023-05-08T01:50:47.165Z,96768.44
2023-05-08T01:53:21.465Z,96780.59
2023-05-08T01:55:51.202Z,96804.34
2023-05-08T01:58:19.189Z,96771.13
2023-05-08T02:00:47.531Z,96809.94
2023-05-08T02:03:16.190Z,96802.03
2023-05-08T02:05:44.437Z,96795.78
2023-05-08T02:08:14.234Z,96787.66
2023-05-08T02:10:42.811Z,96778.59
2023-05-08T02:13:12.269Z,96805.84
2023-05-08T02:15:40.138Z,96800.00
2023-05-08T02:18:08.920Z,96812.19
2023-05-08T02:20:38.154Z,96785.44
2023-05-08T02:23:05.593Z,96772.09
2023-05-08T02:25:33.562Z,96785.50
2023-05-08T02:28:02.108Z,96800.91
2023-05-08T02:30:29.577Z,96792.53
2023-05-08T02:33:00.584Z,96824.88
2023-05-08T02:35:31.148Z,96784.34
2023-05-08T02:37:59.664Z,96813.38
2023-05-08T02:40:29.610Z,96826.25
2023-05-08T02:42:57.331Z,96822.13
2023-05-08T02:45:29.013Z,96830.50
2023-05-08T02:48:12.320Z,96786.59
2023-05-08T02:50:50.456Z,96820.56
2023-05-08T02:53:26.632Z,96830.31
2023-05-08T02:55:58.249Z,96752.34
2023-05-08T02:58:40.238Z,96821.53
2023-05-08T03:01:27.589Z,96809.56
2023-05-08T03:04:15.856Z,96809.34
2023-05-08T03:06:47.153Z,96801.31
2023-05-08T03:09:21.011Z,96808.97
2023-05-08T03:11:52.016Z,96812.50
2023-05-08T03:14:22.839Z,96826.78
2023-05-08T03:16:53.821Z,96811.59
2023-05-08T03:19:31.870Z,96835.66
2023-05-08T03:22:01.906Z,96801.94
2023-05-08T03:24:31.645Z,96821.78
2023-05-08T03:27:00.101Z,96817.13
2023-05-08T03:29:28.556Z,96815.72
2023-05-08T03:31:58.745Z,96806.28
2023-05-08T03:34:25.848Z,96798.19
2023-05-08T03:36:53.370Z,96799.34
2023-05-08T03:39:20.512Z,96812.81
2023-05-08T03:41:48.172Z,96816.22
2023-05-08T03:44:16.792Z,96809.66
2023-05-08T03:46:45.235Z,96836.53
2023-05-08T03:49:12.905Z,96825.72
2023-05-08T03:51:42.641Z,96810.88
2023-05-08T03:54:09.495Z,96805.53
2023-05-08T03:56:36.635Z,96834.47
2023-05-08T03:59:27.133Z,96841.31
2023-05-08T04:02:05.213Z,96815.44
2023-05-08T04:04:55.890Z,96840.97
2023-05-08T04:07:29.866Z,96815.72
2023-05-08T04:10:13.892Z,96841.06
2023-05-08T04:12:54.748Z,96832.25
2023-05-08T04:15:28.890Z,96855.88
2023-05-08T04:18:00.836Z,96846.22
2023-05-08T04:20:30.640Z,96846.66
2023-05-08T04:22:59.243Z,96817.03
2023-05-08T04:25:27.230Z,96827.06
2023-05-08T04:27:56.352Z,96820.00
2023-05-08T04:30:24.634Z,96855.88
2023-05-08T04:32:52.760Z,96860.66
2023-05-08T04:35:20.131Z,96848.66
2023-05-08T04:37:48.648Z,96841.31
2023-05-08T04:40:16.562Z,96866.84
2023-05-08T04:42:47.487Z,96841.50
2023-05-08T04:45:16.796Z,96862.94
2023-05-08T04:47:43.750Z,96848.22
2023-05-08T04:50:11.465Z,96862.72
2023-05-08T04:52:38.390Z,96868.22
2023-05-08T04:55:06.895Z,96842.19
2023-05-08T04:57:35.874Z,96865.19
2023-05-08T05:00:03.502Z,96864.63
2023-05-08T05:02:32.100Z,96826.63
2023-05-08T05:05:01.476Z,96871.00
2023-05-08T05:07:29.348Z,96842.91
2023-05-08T05:09:56.424Z,96858.31
2023-05-08T05:12:23.314Z,96839.00
2023-05-08T05:14:50.152Z,96875.31
2023-05-08T05:17:17.044Z,96881.38
2023-05-08T05:19:43.905Z,96884.28
2023-05-08T05:22:13.808Z,96861.53
2023-05-08T05:24:41.784Z,96860.25
2023-05-08T05:27:08.714Z,96870.56
2023-05-08T05:29:35.695Z,96865.50
2023-05-08T05:32:03.422Z,96872.22
2023-05-08T05:34:30.479Z,96878.97
2023-05-08T05:36:57.357Z,96889.06
2023-05-08T05:39:24.915Z,96865.78
2023-05-08T05:41:51.837Z,96874.63
2023-05-08T05:44:18.788Z,96875.25
2023-05-08T05:46:45.761Z,96870.44
2023-05-08T05:49:12.889Z,96890.34
2023-05-08T05:51:39.970Z,96865.50
2023-05-08T05:54:06.846Z,96882.91
2023-05-08T05:56:34.470Z,96868.97
2023-05-08T05:59:01.445Z,96902.38
2023-05-08T06:01:29.355Z,96907.91
2023-05-08T06:03:56.946Z,96888.25
2023-05-08T06:06:25.046Z,96833.22
2023-05-08T06:08:51.977Z,96888.09
2023-05-08T06:11:18.883Z,96882.38
2023-05-08T06:13:46.597Z,96900.28
2023-05-08T06:16:14.522Z,96872.97
2023-05-08T06:18:41.644Z,96874.53
2023-05-08T06:21:09.728Z,96867.72
2023-05-08T06:23:36.848Z,96868.66
2023-05-08T06:26:03.802Z,96828.91
2023-05-08T06:28:30.706Z,96906.44
2023-05-08T06:30:57.574Z,96893.13
2023-05-08T06:33:26.759Z,96896.63
2023-05-08T06:35:54.022Z,96892.97
2023-05-08T06:38:20.864Z,96886.03
2023-05-08T06:40:50.280Z,96921.97
2023-05-08T06:43:17.299Z,96867.34
2023-05-08T06:45:45.650Z,96890.78
2023-05-08T06:48:12.521Z,96900.94
2023-05-08T06:50:40.885Z,96907.16
2023-05-08T06:53:08.227Z,96912.16
2023-05-08T06:55:35.058Z,96883.34
2023-05-08T06:58:01.986Z,96910.53
2023-05-08T07:00:28.942Z,96885.94
2023-05-08T07:02:56.032Z,96899.84
2023-05-08T07:05:23.210Z,96880.34
2023-05-08T07:07:50.093Z,96899.44
2023-05-08T07:10:20.086Z,96916.69
2023-05-08T07:12:47.090Z,96884.03
2023-05-08T07:15:25.385Z,96896.06
2023-05-08T07:17:54.361Z,96919.81
2023-05-08T07:20:21.868Z,96899.44
2023-05-08T07:22:48.930Z,96922.69
2023-05-08T07:25:16.378Z,96916.97
2023-05-08T07:27:43.466Z,96876.09
2023-05-08T07:30:10.983Z,96901.13
2023-05-08T07:32:39.585Z,96890.38
2023-05-08T07:35:10.775Z,96890.84
2023-05-08T07:37:39.557Z,96926.53
2023-05-08T07:40:07.332Z,96910.22
2023-05-08T07:42:44.832Z,96927.78
2023-05-08T07:45:13.329Z,96924.47
2023-05-08T07:47:55.500Z,96911.03
2023-05-08T07:50:22.666Z,96922.28
2023-05-08T07:52:50.454Z,96884.91
2023-05-08T07:55:18.766Z,96917.53
2023-05-08T07:57:46.069Z,96890.13
2023-05-08T08:00:15.193Z,96909.72
2023-05-08T08:02:42.859Z,96891.94
2023-05-08T08:05:10.291Z,96919.78
2023-05-08T08:07:37.627Z,96908.84
2023-05-08T08:10:05.073Z,96901.94
2023-05-08T08:12:32.250Z,96902.25
2023-05-08T08:14:59.170Z,96883.97
2023-05-08T08:17:28.537Z,96910.25
2023-05-08T08:19:56.111Z,96912.84
2023-05-08T08:22:23.958Z,96890.72
2023-05-08T08:24:52.396Z,96909.66
2023-05-08T08:27:21.060Z,96900.47
2023-05-08T08:29:47.995Z,96927.47
2023-05-08T08:32:14.980Z,96920.84
2023-05-08T08:34:41.805Z,96891.16
2023-05-08T08:37:08.674Z,96908.81
2023-05-08T08:39:35.983Z,96921.91
2023-05-08T08:42:03.845Z,96916.28
2023-05-08T08:44:30.736Z,96918.47
2023-05-08T08:47:00.254Z,96936.06
2023-05-08T08:49:34.667Z,96909.25
2023-05-08T08:52:15.837Z,96932.00
2023-05-08T08:54:46.549Z,96937.56
2023-05-08T08:57:14.539Z,96928.44
2023-05-08T08:59:43.437Z,96929.16
2023-05-08T09:02:14.956Z,96905.78
2023-05-08T09:04:41.836Z,96915.09
2023-05-08T09:07:09.447Z,96914.19
2023-05-08T09:09:41.116Z,96906.06
2023-05-08T09:12:08.210Z,96924.03
2023-05-08T09:14:35.281Z,96907.38
2023-05-08T09:17:02.635Z,96931.81
2023-05-08T09:19:30.126Z,96937.44
2023-05-08T09:22:01.271Z,96936.25
2023-05-08T09:24:58.176Z,96923.25
2023-05-08T09:27:26.825Z,96906.66
2023-05-08T09:30:10.919Z,96913.97
2023-05-08T09:32:39.749Z,96918.19
2023-05-08T09:35:08.400Z,96925.72
2023-05-08T09:37:39.491Z,96934.34
2023-05-08T09:40:15.673Z,96925.41
2023-05-08T09:42:42.835Z,96918.63
2023-05-08T09:45:10.381Z,96906.28
2023-05-08T09:47:40.444Z,96910.66
2023-05-08T09:50:09.912Z,96893.69
2023-05-08T09:52:39.089Z,96921.06
2023-05-08T09:55:08.344Z,96920.72
2023-05-08T09:57:38.635Z,96921.97
2023-05-08T10:00:13.504Z,96908.25
2023-05-08T10:02:42.826Z,96921.50
2023-05-08T10:05:32.953Z,96927.81
2023-05-08T10:08:19.155Z,96910.88
2023-05-08T10:10:46.352Z,96917.06
2023-05-08T10:13:14.104Z,96926.00
2023-05-08T10:15:44.782Z,96902.88
2023-05-08T10:18:12.494Z,96928.53
2023-05-08T10:20:41.713Z,96889.88
2023-05-08T10:23:11.663Z,96928.47
2023-05-08T10:25:54.157Z,96923.03
2023-05-08T10:28:48.936Z,96899.44
2023-05-08T10:31:18.414Z,96885.44
2023-05-08T10:33:50.685Z,96917.16
2023-05-08T10:36:17.758Z,96895.03
2023-05-08T10:38:45.243Z,96908.41
2023-05-08T10:41:12.476Z,96914.53
2023-05-08T10:43:42.766Z,96914.84
2023-05-08T10:46:31.092Z,96919.38
2023-05-08T10:49:11.579Z,96900.19
2023-05-08T10:52:08.379Z,96918.75
2023-05-08T10:54:53.912Z,96920.97
2023-05-08T10:57:20.739Z,96906.16
2023-05-08T10:59:47.933Z,96899.28
2023-05-08T11:02:15.970Z,96915.25
2023-05-08T11:04:44.125Z,96916.13
2023-05-08T11:07:11.861Z,96898.31
2023-05-08T11:09:41.423Z,96910.13
2023-05-08T11:12:16.548Z,96902.84
2023-05-08T11:14:53.491Z,96894.47
2023-05-08T11:17:24.834Z,96907.63
2023-05-08T11:19:57.458Z,96910.72
2023-05-08T11:22:27.382Z,96909.56
2023-05-08T11:24:56.650Z,96914.53
2023-05-08T11:27:36.558Z,96873.34
2023-05-08T11:30:18.731Z,96922.13
2023-05-08T11:33:04.343Z,96919.59
2023-05-08T11:35:48.735Z,96921.28
2023-05-08T11:38:21.724Z,96916.06
2023-05-08T11:40:58.690Z,96914.97
2023-05-08T11:43:34.397Z,96915.03
2023-05-08T11:46:04.458Z,96908.63
2023-05-08T11:48:33.016Z,96912.34
2023-05-08T11:51:00.872Z,96908.13
2023-05-08T11:53:29.103Z,96912.41
2023-05-08T11:55:56.215Z,96911.88
2023-05-08T11:58:23.350Z,96901.56
2023-05-08T12:00:50.604Z,96920.78
2023-05-08T12:03:28.113Z,96919.81
2023-05-08T12:05:59.738Z,96913.78
2023-05-08T12:08:27.056Z,96906.09
2023-05-08T12:10:57.065Z,96915.78
2023-05-08T12:13:27.637Z,96887.41
2023-05-08T12:15:57.045Z,96911.81
2023-05-08T12:18:26.431Z,96904.38
2023-05-08T12:20:57.257Z,96917.94
2023-05-08T12:23:29.609Z,96887.31
2023-05-08T12:26:00.717Z,96885.09
2023-05-08T12:28:28.044Z,96888.56
2023-05-08T12:30:55.254Z,96890.78
2023-05-08T12:33:22.677Z,96899.91
2023-05-08T12:35:49.753Z,96897.94
2023-05-08T12:38:16.904Z,96894.44
2023-05-08T12:40:46.272Z,96893.97
2023-05-08T12:43:13.217Z,96903.25
2023-05-08T12:45:42.099Z,96912.75
2023-05-08T12:48:11.297Z,96893.22
2023-05-08T12:50:40.588Z,96902.38
2023-05-08T12:53:15.803Z,96919.34
2023-05-08T12:55:57.620Z,96906.03
2023-05-08T12:58:26.524Z,96908.16
2023-05-08T13:00:54.340Z,96900.53
2023-05-08T13:03:29.200Z,96873.75
2023-05-08T13:05:57.912Z,96912.31
2023-05-08T13:08:33.250Z,96909.69
2023-05-08T13:11:01.389Z,96891.50
2023-05-08T13:13:31.167Z,96890.97
2023-05-08T13:15:58.141Z,96902.38
2023-05-08T13:18:28.327Z,96885.91
2023-05-08T13:20:56.395Z,96910.59
2023-05-08T13:23:23.796Z,96897.09
2023-05-08T13:25:51.570Z,96903.09
2023-05-08T13:28:18.497Z,96893.63
2023-05-08T13:30:45.567Z,96894.59
2023-05-08T13:33:12.598Z,96897.53
2023-05-08T13:35:39.505Z,96891.19
2023-05-08T13:38:06.348Z,96888.63
2023-05-08T13:40:33.447Z,96894.22
2023-05-08T13:43:00.410Z,96892.50
2023-05-08T13:45:27.446Z,96864.00
2023-05-08T13:47:54.870Z,96865.31
2023-05-08T13:50:22.460Z,96870.19
2023-05-08T13:52:50.975Z,96860.63
2023-05-08T13:55:22.210Z,96883.22
2023-05-08T13:57:49.151Z,96874.03
2023-05-08T14:00:16.977Z,96849.13
2023-05-08T14:02:43.977Z,96862.44
2023-05-08T14:05:11.112Z,96876.41
2023-05-08T14:07:38.315Z,96873.09
2023-05-08T14:10:05.718Z,96875.31
2023-05-08T14:12:36.605Z,96880.03
2023-05-08T14:15:07.364Z,96863.13
2023-05-08T14:17:34.573Z,96843.16
2023-05-08T14:20:01.514Z,96875.22
2023-05-08T14:22:28.617Z,96878.56
2023-05-08T14:24:55.681Z,96877.50
2023-05-08T14:27:22.645Z,96854.31
2023-05-08T14:29:49.813Z,96856.38
2023-05-08T14:32:16.790Z,96882.00
2023-05-08T14:34:43.734Z,96880.94
2023-05-08T14:37:11.500Z,96868.88
2023-05-08T14:39:38.395Z,96863.63
2023-05-08T14:42:22.348Z,96832.16
2023-05-08T14:44:50.150Z,96870.75
2023-05-08T14:47:17.142Z,96861.25
2023-05-08T14:49:44.028Z,96837.56
2023-05-08T14:52:10.892Z,96815.56
2023-05-08T14:54:38.517Z,96829.06
2023-05-08T14:57:05.668Z,96851.03
2023-05-08T14:59:32.511Z,96832.28
2023-05-08T15:01:59.364Z,96821.13
2023-05-08T15:04:26.216Z,96857.41
2023-05-08T15:06:53.217Z,96837.56
2023-05-08T15:09:20.111Z,96854.88
2023-05-08T15:11:47.072Z,96847.53
2023-05-08T15:14:13.954Z,96834.41
2023-05-08T15:16:40.886Z,96847.19
2023-05-08T15:19:09.784Z,96838.03
2023-05-08T15:21:36.787Z,96825.34
2023-05-08T15:24:03.854Z,96827.78
2023-05-08T15:26:30.767Z,96824.28
2023-05-08T15:28:57.697Z,96841.19
2023-05-08T15:31:24.606Z,96853.91
2023-05-08T15:33:51.525Z,96842.22
2023-05-08T15:36:18.397Z,96813.16
2023-05-08T15:38:45.292Z,96842.41
2023-05-08T15:41:15.083Z,96827.56
2023-05-08T15:43:43.168Z,96842.00
2023-05-08T15:46:10.379Z,96837.66
2023-05-08T15:48:37.366Z,96834.38
2023-05-08T15:51:04.430Z,96845.19
2023-05-08T15:53:32.628Z,96832.78
2023-05-08T15:55:59.533Z,96815.69
2023-05-08T15:58:26.980Z,96835.06
2023-05-08T16:00:53.897Z,96814.91
2023-05-08T16:03:20.940Z,96793.72
2023-05-08T16:05:48.243Z,96828.72
2023-05-08T16:08:15.243Z,96820.88
2023-05-08T16:10:42.294Z,96812.81
2023-05-08T16:13:09.761Z,96822.09
2023-05-08T16:15:36.826Z,96835.41
2023-05-08T16:18:03.957Z,96800.00
2023-05-08T16:20:32.826Z,96807.31
2023-05-08T16:23:00.462Z,96791.25
2023-05-08T16:25:27.418Z,96824.69
2023-05-08T16:27:54.310Z,96819.94
2023-05-08T16:30:21.226Z,96820.03
2023-05-08T16:32:48.142Z,96824.84
2023-05-08T16:35:15.457Z,96818.06
2023-05-08T16:37:42.814Z,96822.47
2023-05-08T16:40:12.857Z,96811.69
2023-05-08T16:42:39.784Z,96810.13
2023-05-08T16:45:07.702Z,96803.03
2023-05-08T16:47:34.821Z,96814.44
2023-05-08T16:50:01.943Z,96809.81
2023-05-08T16:52:29.010Z,96816.44
2023-05-08T16:54:55.948Z,96804.13
2023-05-08T16:57:22.908Z,96815.13
2023-05-08T16:59:49.959Z,96793.38
2023-05-08T17:02:19.831Z,96802.69
2023-05-08T17:04:47.936Z,96788.66
2023-05-08T17:07:15.815Z,96804.41
2023-05-08T17:09:43.032Z,96819.69
2023-05-08T17:12:10.601Z,96813.25
2023-05-08T17:14:39.548Z,96812.66
2023-05-08T17:17:07.084Z,96812.28
2023-05-08T17:19:34.285Z,96801.56
2023-05-08T17:22:01.332Z,96822.19
2023-05-08T17:24:30.151Z,96816.63
2023-05-08T17:26:57.125Z,96802.69
2023-05-08T17:29:23.976Z,96805.25
2023-05-08T17:31:50.981Z,96824.00
2023-05-08T17:34:17.982Z,96806.47
2023-05-08T17:36:44.985Z,96832.47
2023-05-08T17:39:12.373Z,96823.91
2023-05-08T17:41:39.288Z,96814.03
2023-05-08T17:44:06.296Z,96833.94
2023-05-08T17:46:33.251Z,96802.25
2023-05-08T17:49:00.209Z,96814.66
2023-05-08T17:51:27.226Z,96833.16
2023-05-08T17:53:54.108Z,96816.06
2023-05-08T17:56:23.371Z,96823.34
2023-05-08T17:58:52.073Z,96828.50
2023-05-08T18:01:19.879Z,96844.34
2023-05-08T18:03:48.522Z,96834.97
2023-05-08T18:06:19.301Z,96828.59
2023-05-08T18:08:46.667Z,96854.13
2023-05-08T18:11:20.462Z,96856.38
2023-05-08T18:13:47.716Z,96833.13
2023-05-08T18:16:16.238Z,96861.09
2023-05-08T18:18:43.788Z,96865.47
2023-05-08T18:21:11.146Z,96822.94
2023-05-08T18:23:38.143Z,96850.19
2023-05-08T18:26:05.686Z,96863.69
2023-05-08T18:28:32.792Z,96864.81
2023-05-08T18:30:59.765Z,96861.97
2023-05-08T18:33:26.812Z,96853.44
2023-05-08T18:35:53.805Z,96847.38
2023-05-08T18:38:20.958Z,96841.72
2023-05-08T18:40:48.028Z,96842.69
2023-05-08T18:43:15.055Z,96855.91
2023-05-08T18:46:05.317Z,96852.38
2023-05-08T18:48:35.833Z,96848.19
2023-05-08T18:51:02.876Z,96848.41
2023-05-08T18:53:30.843Z,96870.78
2023-05-08T18:55:57.865Z,96871.31
2023-05-08T18:58:24.886Z,96858.94
2023-05-08T19:00:55.974Z,96854.72
2023-05-08T19:03:24.232Z,96856.50
2023-05-08T19:05:52.085Z,96875.75
2023-05-08T19:08:18.969Z,96864.34
2023-05-08T19:10:46.008Z,96882.19
2023-05-08T19:13:12.921Z,96879.97
2023-05-08T19:15:40.024Z,96851.75
2023-05-08T19:18:07.936Z,96872.78
2023-05-08T19:20:35.105Z,96871.03
2023-05-08T19:23:02.034Z,96852.63
2023-05-08T19:25:28.999Z,96868.03
2023-05-08T19:27:56.807Z,96860.50
2023-05-08T19:30:26.910Z,96853.63
2023-05-08T19:32:53.833Z,96851.41
2023-05-08T19:35:21.483Z,96873.69
2023-05-08T19:37:48.406Z,96859.06
2023-05-08T19:40:16.611Z,96858.84
2023-05-08T19:42:46.662Z,96852.09
2023-05-08T19:45:13.755Z,96863.69
2023-05-08T19:47:40.865Z,96851.06
2023-05-08T19:50:08.437Z,96870.78
2023-05-08T19:52:35.426Z,96827.38
2023-05-08T19:55:02.409Z,96872.34
2023-05-08T19:57:29.366Z,96856.06
2023-05-08T19:59:56.369Z,96866.34
2023-05-08T20:02:23.469Z,96865.34
2023-05-08T20:05:14.321Z,96856.44
2023-05-08T20:07:37.451Z,96859.72
2023-05-08T20:10:04.730Z,96854.81
2023-05-08T20:12:31.637Z,96846.44
2023-05-08T20:14:58.567Z,96846.59
2023-05-08T20:17:25.606Z,96859.09
2023-05-08T20:19:52.556Z,96841.16
2023-05-08T20:22:19.520Z,96865.38
2023-05-08T20:24:46.370Z,96861.56
2023-05-08T20:27:13.311Z,96833.28
2023-05-08T20:29:40.164Z,96855.31
2023-05-08T20:32:08.334Z,96858.44
2023-05-08T20:34:35.503Z,96849.50
2023-05-08T20:37:04.061Z,96838.31
2023-05-08T20:39:31.003Z,96858.88
2023-05-08T20:41:57.941Z,96846.44
2023-05-08T20:44:24.926Z,96821.84
2023-05-08T20:46:52.152Z,96852.03
2023-05-08T20:49:21.558Z,96798.19
2023-05-08T20:51:48.613Z,96861.09
2023-05-08T20:54:15.774Z,96848.94
2023-05-08T20:56:42.773Z,96834.91
2023-05-08T20:59:09.775Z,96838.84
2023-05-08T21:01:36.806Z,96846.09
2023-05-08T21:04:03.811Z,96864.59
2023-05-08T21:06:31.011Z,96864.63
2023-05-08T21:08:58.086Z,96848.38
2023-05-08T21:11:25.051Z,96853.66
2023-05-08T21:13:51.929Z,96849.78
2023-05-08T21:16:18.901Z,96851.66
2023-05-08T21:18:45.878Z,96841.31
2023-05-08T21:21:17.363Z,96828.06
2023-05-08T21:23:44.237Z,96844.41
2023-05-08T21:26:12.351Z,96821.06
2023-05-08T21:28:39.247Z,96833.16
2023-05-08T21:31:06.203Z,96815.31
2023-05-08T21:33:34.034Z,96830.72
2023-05-08T21:36:00.911Z,96811.81
2023-05-08T21:38:27.869Z,96834.19
2023-05-08T21:40:55.812Z,96798.47
2023-05-08T21:43:22.773Z,96817.38
2023-05-08T21:45:49.635Z,96797.28
2023-05-08T21:48:16.692Z,96815.31
2023-05-08T21:50:43.583Z,96786.44
2023-05-08T21:53:10.474Z,96799.56
2023-05-08T21:55:37.354Z,96820.38
2023-05-08T21:58:04.260Z,96820.09
2023-05-08T22:00:31.122Z,96813.72
2023-05-08T22:02:58.142Z,96795.66
2023-05-08T22:05:25.143Z,96785.09
2023-05-08T22:07:52.093Z,96792.00
2023-05-08T22:10:18.973Z,96811.31
2023-05-08T22:12:45.838Z,96798.25
2023-05-08T22:15:25.514Z,96813.88
2023-05-08T22:17:56.820Z,96811.84
2023-05-08T22:20:23.877Z,96797.69
2023-05-08T22:22:50.879Z,96788.75
2023-05-08T22:25:17.783Z,96765.88
2023-05-08T22:27:44.598Z,96792.44
2023-05-08T22:30:11.713Z,96780.63
2023-05-08T22:32:38.707Z,96789.84
2023-05-08T22:35:06.801Z,96775.38
2023-05-08T22:37:33.625Z,96780.63
2023-05-08T22:40:00.552Z,96789.97
2023-05-08T22:42:27.516Z,96770.00
2023-05-08T22:44:54.397Z,96776.94
2023-05-08T22:47:24.209Z,96769.97
2023-05-08T22:49:51.599Z,96780.22
2023-05-08T22:52:18.440Z,96788.81
2023-05-08T22:54:45.312Z,96773.63
2023-05-08T22:57:12.200Z,96793.47
2023-05-08T22:59:39.064Z,96765.13
2023-05-08T23:02:05.918Z,96761.41
2023-05-08T23:04:32.869Z,96797.16
2023-05-08T23:06:59.765Z,96797.00
2023-05-08T23:09:26.640Z,96785.03
2023-05-08T23:11:53.527Z,96774.63
2023-05-08T23:14:20.537Z,96777.66
2023-05-08T23:16:47.519Z,96776.28
2023-05-08T23:19:14.557Z,96763.56
2023-05-08T23:21:41.608Z,96767.56
2023-05-08T23:24:08.525Z,96768.22
2023-05-08T23:26:35.467Z,96781.09
2023-05-08T23:29:02.301Z,96747.31
2023-05-08T23:31:29.945Z,96786.13
2023-05-08T23:33:57.290Z,96766.59
2023-05-08T23:36:24.907Z,96758.66
2023-05-08T23:38:51.762Z,96763.31
2023-05-08T23:41:18.960Z,96786.59
2023-05-08T23:43:45.785Z,96765.16
2023-05-08T23:46:12.857Z,96769.25
2023-05-08T23:48:39.771Z,96775.75
2023-05-08T23:51:06.642Z,96744.72
2023-05-08T23:53:33.520Z,96752.81
2023-05-08T23:56:00.539Z,96754.81
2023-05-08T23:58:27.408Z,96753.56
